createdAt,value
2022-09-26T00:01:45.592Z,10.79
2022-09-26T00:04:30.390Z,10.46
2022-09-26T00:07:02.113Z,10.40
2022-09-26T00:09:29.112Z,10.13
2022-09-26T00:11:58.409Z,9.99
2022-09-26T00:14:29.038Z,10.26
2022-09-26T00:16:58.233Z,10.48
2022-09-26T00:19:25.587Z,10.58
2022-09-26T00:21:52.669Z,10.57
2022-09-26T00:24:24.075Z,10.48
2022-09-26T00:26:53.048Z,10.33
2022-09-26T00:29:19.951Z,10.35
2022-09-26T00:31:48.939Z,10.52
2022-09-26T00:34:20.651Z,10.55
2022-09-26T00:36:47.706Z,10.44
2022-09-26T00:39:16.751Z,10.45
2022-09-26T00:41:47.304Z,10.47
2022-09-26T00:44:48.581Z,10.27
2022-09-26T00:47:59.468Z,10.14
2022-09-26T00:50:34.038Z,10.17
2022-09-26T00:53:09.398Z,10.32
2022-09-26T00:55:43.043Z,10.25
2022-09-26T00:58:28.218Z,10.22
2022-09-26T01:00:59.023Z,10.27
2022-09-26T01:03:27.944Z,10.30
2022-09-26T01:05:55.375Z,10.34
2022-09-26T01:08:36.824Z,10.06
2022-09-26T01:11:04.655Z,9.95
2022-09-26T01:13:34.571Z,10.00
2022-09-26T01:16:02.127Z,10.01
2022-09-26T01:18:29.691Z,10.06
2022-09-26T01:21:33.587Z,9.95
2022-09-26T01:24:23.743Z,10.06
2022-09-26T01:26:59.412Z,10.29
2022-09-26T01:30:08.387Z,10.37
2022-09-26T01:32:57.285Z,10.10
2022-09-26T01:35:37.059Z,10.36
2022-09-26T01:38:20.213Z,10.36
2022-09-26T01:41:22.151Z,10.35
2022-09-26T01:44:17.677Z,10.42
2022-09-26T01:47:15.490Z,10.43
2022-09-26T01:50:18.711Z,10.45
2022-09-26T01:53:12.227Z,10.50
2022-09-26T01:55:46.230Z,10.48
2022-09-26T01:58:27.624Z,10.31
2022-09-26T02:01:01.119Z,10.30
2022-09-26T02:03:34.824Z,10.18
2022-09-26T02:06:09.270Z,10.47
2022-09-26T02:08:44.491Z,10.59
2022-09-26T02:11:18.913Z,10.81
2022-09-26T02:14:34.878Z,10.82
2022-09-26T02:17:22.958Z,11.09
2022-09-26T02:19:56.666Z,11.11
2022-09-26T02:22:31.252Z,11.10
2022-09-26T02:24:58.634Z,10.86
2022-09-26T02:27:27.459Z,10.98
2022-09-26T02:29:54.831Z,11.07
2022-09-26T02:32:28.936Z,10.90
2022-09-26T02:34:56.673Z,11.08
2022-09-26T02:37:28.851Z,11.27
2022-09-26T02:39:56.734Z,11.22
2022-09-26T02:42:38.116Z,11.26
2022-09-26T02:45:30.255Z,11.48
2022-09-26T02:47:59.928Z,11.60
2022-09-26T02:50:47.112Z,11.30
2022-09-26T02:53:29.480Z,11.44
2022-09-26T02:56:24.070Z,11.60
2022-09-26T02:59:25.620Z,11.69
2022-09-26T03:02:06.274Z,11.85
2022-09-26T03:05:04.225Z,11.78
2022-09-26T03:07:37.645Z,11.65
2022-09-26T03:10:10.856Z,11.78
2022-09-26T03:12:39.498Z,11.84
2022-09-26T03:15:08.142Z,11.73
2022-09-26T03:17:43.086Z,11.78
2022-09-26T03:20:24.844Z,11.84
2022-09-26T03:22:52.481Z,11.70
2022-09-26T03:25:24.017Z,11.83
2022-09-26T03:27:53.625Z,11.94
2022-09-26T03:30:23.069Z,11.89
2022-09-26T03:32:52.082Z,11.95
2022-09-26T03:35:19.241Z,11.95
2022-09-26T03:37:46.436Z,11.85
2022-09-26T03:40:14.301Z,11.91
2022-09-26T03:42:43.944Z,11.89
2022-09-26T03:45:14.161Z,11.94
2022-09-26T03:47:43.581Z,11.87
2022-09-26T03:50:15.151Z,11.83
2022-09-26T03:52:42.073Z,11.95
2022-09-26T03:55:11.983Z,12.05
2022-09-26T03:57:38.845Z,11.81
2022-09-26T04:00:08.292Z,11.90
2022-09-26T04:02:35.338Z,11.82
2022-09-26T04:05:04.475Z,11.79
2022-09-26T04:07:31.397Z,11.80
2022-09-26T04:09:58.314Z,11.92
2022-09-26T04:12:25.773Z,12.04
2022-09-26T04:14:52.927Z,11.76
2022-09-26T04:17:20.461Z,11.99
2022-09-26T04:19:49.665Z,12.03
2022-09-26T04:22:19.768Z,11.99
2022-09-26T04:24:46.935Z,12.04
2022-09-26T04:27:15.894Z,11.98
2022-09-26T04:29:44.180Z,11.93
2022-09-26T04:32:12.566Z,11.83
2022-09-26T04:34:41.981Z,11.86
2022-09-26T04:37:13.364Z,11.79
2022-09-26T04:39:40.247Z,11.94
2022-09-26T04:42:09.373Z,11.89
2022-09-26T04:44:36.273Z,11.83
2022-09-26T04:47:03.134Z,12.04
2022-09-26T04:49:29.937Z,12.12
2022-09-26T04:51:56.754Z,11.97
2022-09-26T04:54:24.103Z,11.95
2022-09-26T04:56:53.500Z,11.85
2022-09-26T04:59:22.789Z,12.12
2022-09-26T05:01:49.646Z,12.00
2022-09-26T05:04:16.657Z,12.04
2022-09-26T05:06:43.525Z,12.03
2022-09-26T05:09:10.544Z,12.15
2022-09-26T05:11:41.993Z,12.13
2022-09-26T05:14:09.109Z,11.94
2022-09-26T05:16:37.112Z,11.89
2022-09-26T05:19:04.454Z,12.08
2022-09-26T05:21:32.787Z,12.22
2022-09-26T05:24:20.695Z,12.19
2022-09-26T05:26:55.257Z,12.34
2022-09-26T05:29:27.333Z,12.58
2022-09-26T05:31:56.756Z,12.32
2022-09-26T05:34:26.449Z,12.26
2022-09-26T05:36:59.329Z,12.30
2022-09-26T05:39:44.862Z,12.24
2022-09-26T05:42:11.768Z,12.23
2022-09-26T05:44:39.675Z,12.31
2022-09-26T05:47:09.866Z,12.41
2022-09-26T05:49:36.836Z,12.36
2022-09-26T05:52:04.064Z,12.28
2022-09-26T05:54:33.465Z,12.41
2022-09-26T05:57:00.869Z,12.72
2022-09-26T05:59:27.722Z,12.74
2022-09-26T06:01:55.767Z,12.74
2022-09-26T06:04:24.778Z,12.49
2022-09-26T06:06:54.332Z,12.41
2022-09-26T06:09:25.742Z,12.54
2022-09-26T06:11:52.560Z,12.56
2022-09-26T06:14:19.426Z,12.59
2022-09-26T06:16:48.706Z,12.29
2022-09-26T06:19:19.386Z,12.27
2022-09-26T06:21:51.017Z,12.33
2022-09-26T06:24:18.593Z,12.29
2022-09-26T06:26:48.439Z,12.52
2022-09-26T06:29:15.538Z,13.39
2022-09-26T06:31:43.251Z,13.62
2022-09-26T06:34:15.481Z,13.78
2022-09-26T06:36:42.589Z,14.10
2022-09-26T06:39:11.742Z,14.12
2022-09-26T06:41:38.803Z,13.69
2022-09-26T06:44:08.234Z,13.34
2022-09-26T06:46:35.326Z,12.88
2022-09-26T06:49:02.134Z,13.17
2022-09-26T06:51:30.521Z,13.20
2022-09-26T06:53:57.427Z,13.12
2022-09-26T06:56:24.346Z,13.16
2022-09-26T06:58:55.044Z,13.24
2022-09-26T07:01:22.084Z,13.20
2022-09-26T07:03:49.200Z,12.93
2022-09-26T07:06:17.155Z,13.09
2022-09-26T07:09:01.343Z,13.17
2022-09-26T07:11:42.130Z,13.41
2022-09-26T07:14:21.039Z,13.00
2022-09-26T07:16:52.069Z,12.80
2022-09-26T07:19:19.039Z,13.11
2022-09-26T07:21:49.976Z,12.88
2022-09-26T07:24:16.855Z,12.78
2022-09-26T07:26:46.543Z,12.81
2022-09-26T07:29:14.764Z,13.03
2022-09-26T07:31:41.928Z,13.13
2022-09-26T07:34:15.832Z,13.09
2022-09-26T07:36:47.487Z,13.29
2022-09-26T07:39:19.290Z,13.25
2022-09-26T07:41:46.740Z,13.41
2022-09-26T07:47:20.784Z,13.33
2022-09-26T07:50:08.513Z,13.10
2022-09-26T07:52:38.564Z,13.42
2022-09-26T07:55:06.905Z,13.51
2022-09-26T07:57:34.185Z,13.49
2022-09-26T08:00:05.109Z,13.08
2022-09-26T08:02:34.513Z,13.37
2022-09-26T08:05:05.698Z,13.38
2022-09-26T08:07:35.301Z,13.66
2022-09-26T08:10:04.170Z,13.66
2022-09-26T08:12:38.677Z,13.77
2022-09-26T08:15:08.900Z,13.88
2022-09-26T08:17:39.146Z,13.85
2022-09-26T08:20:06.796Z,14.43
2022-09-26T08:22:36.475Z,14.86
2022-09-26T08:25:06.728Z,15.68
2022-09-26T08:27:34.662Z,14.85
2022-09-26T08:30:04.633Z,15.03
2022-09-26T08:32:33.995Z,14.78
2022-09-26T08:35:02.935Z,14.89
2022-09-26T08:37:32.486Z,14.71
2022-09-26T08:40:00.920Z,14.79
2022-09-26T08:43:04.320Z,15.36
2022-09-26T08:46:04.833Z,15.57
2022-09-26T08:49:16.219Z,15.93
2022-09-26T08:51:51.586Z,16.41
2022-09-26T08:54:41.675Z,16.33
2022-09-26T08:57:36.261Z,16.08
2022-09-26T09:00:21.364Z,16.58
2022-09-26T09:03:16.183Z,15.81
2022-09-26T09:05:50.173Z,16.10
2022-09-26T09:08:23.278Z,16.38
2022-09-26T09:11:02.453Z,17.08
2022-09-26T09:14:10.914Z,18.35
2022-09-26T09:16:57.918Z,18.87
2022-09-26T09:19:50.741Z,19.67
2022-09-26T09:22:32.366Z,19.11
2022-09-26T09:25:05.859Z,18.79
2022-09-26T09:27:55.900Z,17.87
2022-09-26T09:30:57.509Z,18.12
2022-09-26T09:33:24.402Z,17.90
2022-09-26T09:36:14.056Z,17.53
2022-09-26T09:38:46.084Z,18.29
2022-09-26T09:41:21.375Z,19.78
2022-09-26T09:43:54.570Z,20.21
2022-09-26T09:46:29.729Z,20.96
2022-09-26T09:49:09.329Z,21.48
2022-09-26T09:52:07.490Z,22.53
2022-09-26T09:54:53.260Z,21.48
2022-09-26T09:57:36.639Z,20.52
2022-09-26T10:00:12.249Z,19.28
2022-09-26T10:03:11.418Z,18.47
2022-09-26T10:05:45.574Z,18.05
2022-09-26T10:08:19.349Z,18.46
2022-09-26T10:11:12.891Z,18.48
2022-09-26T10:13:42.961Z,18.33
2022-09-26T10:16:16.351Z,17.51
2022-09-26T10:19:10.611Z,17.58
2022-09-26T10:21:45.974Z,17.22
2022-09-26T10:24:34.219Z,17.14
2022-09-26T10:27:24.937Z,17.25
2022-09-26T10:30:02.249Z,17.09
2022-09-26T10:32:30.479Z,16.85
2022-09-26T10:35:20.492Z,17.37
2022-09-26T10:38:00.912Z,17.77
2022-09-26T10:40:46.187Z,18.02
2022-09-26T10:43:30.377Z,17.85
2022-09-26T10:46:15.532Z,17.87
2022-09-26T10:48:55.191Z,18.26
2022-09-26T10:51:45.566Z,18.25
2022-09-26T10:54:18.711Z,17.74
2022-09-26T10:56:54.195Z,17.37
2022-09-26T10:59:32.312Z,17.63
2022-09-26T11:02:03.802Z,17.47
2022-09-26T11:04:52.724Z,17.59
2022-09-26T11:07:34.008Z,17.38
2022-09-26T11:10:09.881Z,17.21
2022-09-26T11:12:39.652Z,17.25
2022-09-26T11:15:09.868Z,16.94
2022-09-26T11:17:45.394Z,17.44
2022-09-26T11:20:25.565Z,17.56
2022-09-26T11:23:20.133Z,17.37
2022-09-26T11:25:58.291Z,17.13
2022-09-26T11:28:38.506Z,17.27
2022-09-26T11:31:25.046Z,17.86
2022-09-26T11:37:08.759Z,17.27
2022-09-26T11:39:55.310Z,17.04
2022-09-26T11:43:06.542Z,17.04
2022-09-26T11:46:04.878Z,17.14
2022-09-26T11:49:15.361Z,16.98
2022-09-26T11:52:07.604Z,16.71
2022-09-26T11:55:15.154Z,16.60
2022-09-26T11:58:35.030Z,16.05
2022-09-26T12:01:21.104Z,16.94
2022-09-26T12:04:26.658Z,17.93
2022-09-26T12:07:07.376Z,18.89
2022-09-26T12:10:26.334Z,18.95
2022-09-26T12:13:18.121Z,18.75
2022-09-26T12:16:02.128Z,18.18
2022-09-26T12:18:53.559Z,18.42
2022-09-26T12:21:36.185Z,18.80
2022-09-26T12:24:36.768Z,18.69
2022-09-26T12:27:33.260Z,18.59
2022-09-26T12:30:14.689Z,18.87
2022-09-26T12:33:02.560Z,18.79
2022-09-26T12:35:56.674Z,18.44
2022-09-26T12:39:17.252Z,17.49
2022-09-26T12:42:00.332Z,17.37
2022-09-26T12:45:17.300Z,17.44
2022-09-26T12:48:02.253Z,17.40
2022-09-26T12:50:39.876Z,17.41
2022-09-26T12:53:22.042Z,16.71
2022-09-26T12:56:11.374Z,16.74
2022-09-26T12:59:16.107Z,16.24
2022-09-26T13:02:05.552Z,16.20
2022-09-26T13:04:57.594Z,15.91
2022-09-26T13:07:43.004Z,15.89
2022-09-26T13:10:25.196Z,15.64
2022-09-26T13:13:13.897Z,15.86
2022-09-26T13:16:00.387Z,15.57
2022-09-26T13:18:45.539Z,15.61
2022-09-26T13:21:37.596Z,15.42
2022-09-26T13:24:13.908Z,15.77
2022-09-26T13:26:54.159Z,15.35
2022-09-26T13:29:33.693Z,15.44
2022-09-26T13:32:25.752Z,15.39
2022-09-26T13:35:13.449Z,15.42
2022-09-26T13:38:25.345Z,15.45
2022-09-26T13:41:15.600Z,15.47
2022-09-26T13:43:57.394Z,15.28
2022-09-26T13:46:52.230Z,15.31
2022-09-26T13:49:42.829Z,15.15
2022-09-26T13:52:21.920Z,15.46
2022-09-26T13:55:15.051Z,15.00
2022-09-26T13:58:04.188Z,15.20
2022-09-26T14:00:31.610Z,15.11
2022-09-26T14:03:10.463Z,15.09
2022-09-26T14:05:46.588Z,15.18
2022-09-26T14:08:44.296Z,15.49
2022-09-26T14:11:27.834Z,15.62
2022-09-26T14:14:24.156Z,15.22
2022-09-26T14:17:04.837Z,15.23
2022-09-26T14:19:42.729Z,15.23
2022-09-26T14:22:19.168Z,15.32
2022-09-26T14:24:50.188Z,14.86
2022-09-26T14:27:39.521Z,14.85
2022-09-26T14:30:30.220Z,14.86
2022-09-26T14:33:06.492Z,14.95
2022-09-26T14:35:39.767Z,15.02
2022-09-26T14:38:19.793Z,14.64
2022-09-26T14:41:18.412Z,14.89
2022-09-26T14:43:49.887Z,14.97
2022-09-26T14:46:26.095Z,14.94
2022-09-26T14:49:01.770Z,14.88
2022-09-26T14:51:34.274Z,14.87
2022-09-26T14:54:05.649Z,15.07
2022-09-26T14:56:42.409Z,15.06
2022-09-26T14:59:26.783Z,14.79
2022-09-26T15:02:39.528Z,14.77
2022-09-26T15:05:22.691Z,14.46
2022-09-26T15:07:55.266Z,14.34
2022-09-26T15:10:42.720Z,14.49
2022-09-26T15:13:22.734Z,14.60
2022-09-26T15:16:42.702Z,14.49
2022-09-26T15:19:19.553Z,14.25
2022-09-26T15:21:58.429Z,13.87
2022-09-26T15:24:30.116Z,13.89
2022-09-26T15:27:03.707Z,14.04
2022-09-26T15:29:30.562Z,13.97
2022-09-26T15:31:57.655Z,14.02
2022-09-26T15:34:35.256Z,13.77
2022-09-26T15:37:19.628Z,13.94
2022-09-26T15:39:49.227Z,14.09
2022-09-26T15:42:41.190Z,14.17
2022-09-26T15:45:30.398Z,14.11
2022-09-26T15:48:26.331Z,13.97
2022-09-26T15:51:02.105Z,14.22
2022-09-26T15:53:46.570Z,14.10
2022-09-26T15:56:43.363Z,14.08
2022-09-26T15:59:25.643Z,14.01
2022-09-26T16:01:53.319Z,14.12
2022-09-26T16:04:33.527Z,14.32
2022-09-26T16:07:20.672Z,14.37
2022-09-26T16:09:51.408Z,14.06
2022-09-26T16:12:24.980Z,14.06
2022-09-26T16:15:06.014Z,14.08
2022-09-26T16:17:49.188Z,14.05
2022-09-26T16:20:19.008Z,13.88
2022-09-26T16:22:52.598Z,13.93
2022-09-26T16:25:22.920Z,14.03
2022-09-26T16:28:21.082Z,14.06
2022-09-26T16:30:59.981Z,14.33
2022-09-26T16:33:45.104Z,14.18
2022-09-26T16:36:31.554Z,14.17
2022-09-26T16:39:05.915Z,13.96
2022-09-26T16:42:00.482Z,14.21
2022-09-26T16:44:41.806Z,14.08
2022-09-26T16:47:43.842Z,14.08
2022-09-26T16:50:33.402Z,14.16
2022-09-26T16:53:03.087Z,14.06
2022-09-26T16:55:35.093Z,14.10
2022-09-26T16:58:05.172Z,14.00
2022-09-26T17:00:53.401Z,14.04
2022-09-26T17:03:27.700Z,14.18
2022-09-26T17:05:57.184Z,14.12
2022-09-26T17:08:28.185Z,14.17
2022-09-26T17:11:00.304Z,14.33
2022-09-26T17:13:33.072Z,14.13
2022-09-26T17:16:03.773Z,14.15
2022-09-26T17:18:34.443Z,14.21
2022-09-26T17:21:01.682Z,14.06
2022-09-26T17:23:42.041Z,14.05
2022-09-26T17:26:25.454Z,14.29
2022-09-26T17:28:58.255Z,14.07
2022-09-26T17:31:27.736Z,14.08
2022-09-26T17:33:57.394Z,13.95
2022-09-26T17:36:28.114Z,14.02
2022-09-26T17:38:57.711Z,14.09
2022-09-26T17:41:29.687Z,14.19
2022-09-26T17:44:01.062Z,14.26
2022-09-26T17:46:28.967Z,14.23
2022-09-26T17:48:59.355Z,14.19
2022-09-26T17:51:26.449Z,14.18
2022-09-26T17:53:57.497Z,14.05
2022-09-26T17:56:26.441Z,14.12
2022-09-26T17:58:54.226Z,14.00
2022-09-26T18:01:30.247Z,14.32
2022-09-26T18:04:03.899Z,14.13
2022-09-26T18:06:33.278Z,14.16
2022-09-26T18:09:07.740Z,14.18
2022-09-26T18:11:36.299Z,14.14
2022-09-26T18:14:06.953Z,13.99
2022-09-26T18:16:34.078Z,13.93
2022-09-26T18:19:06.860Z,14.10
2022-09-26T18:21:40.754Z,14.27
2022-09-26T18:24:20.190Z,14.15
2022-09-26T18:26:55.127Z,13.98
2022-09-26T18:29:39.144Z,14.14
2022-09-26T18:32:27.378Z,14.25
2022-09-26T18:34:59.672Z,14.26
2022-09-26T18:37:27.410Z,14.07
2022-09-26T18:40:03.808Z,14.15
2022-09-26T18:42:49.298Z,14.05
2022-09-26T18:45:40.410Z,14.20
2022-09-26T18:48:25.931Z,14.05
2022-09-26T18:51:02.737Z,14.04
2022-09-26T18:53:40.178Z,13.85
2022-09-26T18:56:31.618Z,13.89
2022-09-26T18:58:59.880Z,13.93
2022-09-26T19:01:38.326Z,13.90
2022-09-26T19:04:17.254Z,13.78
2022-09-26T19:06:49.714Z,13.68
2022-09-26T19:09:20.805Z,14.05
2022-09-26T19:11:47.753Z,13.99
2022-09-26T19:14:20.321Z,13.73
2022-09-26T19:16:51.858Z,13.63
2022-09-26T19:19:26.827Z,13.74
2022-09-26T19:22:08.235Z,13.99
2022-09-26T19:24:45.626Z,14.09
2022-09-26T19:27:21.598Z,13.55
2022-09-26T19:29:58.885Z,13.50
2022-09-26T19:32:45.065Z,13.60
2022-09-26T19:35:33.026Z,13.53
2022-09-26T19:38:05.844Z,13.66
2022-09-26T19:40:36.508Z,13.45
2022-09-26T19:43:05.795Z,13.27
2022-09-26T19:45:38.589Z,13.58
2022-09-26T19:48:06.834Z,13.53
2022-09-26T19:50:38.186Z,13.41
2022-09-26T19:53:19.186Z,13.46
2022-09-26T19:55:50.156Z,13.39
2022-09-26T19:58:26.311Z,13.47
2022-09-26T20:01:02.404Z,13.27
2022-09-26T20:03:39.908Z,13.18
2022-09-26T20:06:17.922Z,13.43
2022-09-26T20:08:45.029Z,13.23
2022-09-26T20:11:14.559Z,13.31
2022-09-26T20:14:00.496Z,13.35
2022-09-26T20:16:31.656Z,13.21
2022-09-26T20:18:58.858Z,13.26
2022-09-26T20:21:29.529Z,13.21
2022-09-26T20:24:00.314Z,13.31
2022-09-26T20:26:30.697Z,13.27
2022-09-26T20:29:00.245Z,13.35
2022-09-26T20:31:31.275Z,13.28
2022-09-26T20:34:05.926Z,13.47
2022-09-26T20:36:35.988Z,13.43
2022-09-26T20:39:07.407Z,13.27
2022-09-26T20:41:40.337Z,13.13
2022-09-26T20:44:17.922Z,13.32
2022-09-26T20:46:54.211Z,13.20
2022-09-26T20:49:28.683Z,13.27
2022-09-26T20:51:59.865Z,13.48
2022-09-26T20:54:36.838Z,13.61
2022-09-26T20:57:03.859Z,13.47
2022-09-26T20:59:35.128Z,13.28
2022-09-26T21:02:26.441Z,13.52
2022-09-26T21:04:53.937Z,13.53
2022-09-26T21:07:22.354Z,13.50
2022-09-26T21:09:53.738Z,13.39
2022-09-26T21:12:20.827Z,13.38
2022-09-26T21:14:47.830Z,13.49
2022-09-26T21:17:23.102Z,13.37
2022-09-26T21:19:51.459Z,13.56
2022-09-26T21:22:25.721Z,13.36
2022-09-26T21:24:55.479Z,13.55
2022-09-26T21:27:24.769Z,13.64
2022-09-26T21:30:01.670Z,13.58
2022-09-26T21:32:31.345Z,13.61
2022-09-26T21:35:04.011Z,13.52
2022-09-26T21:37:31.520Z,13.58
2022-09-26T21:40:01.015Z,13.40
2022-09-26T21:42:28.022Z,13.32
2022-09-26T21:45:03.006Z,13.53
2022-09-26T21:47:30.298Z,13.37
2022-09-26T21:49:57.961Z,13.41
2022-09-26T21:52:37.811Z,13.56
2022-09-26T21:55:06.405Z,13.39
2022-09-26T21:57:39.053Z,13.28
2022-09-26T22:00:10.084Z,13.16
2022-09-26T22:02:38.725Z,13.21
2022-09-26T22:05:06.486Z,13.16
2022-09-26T22:07:33.357Z,13.39
2022-09-26T22:10:00.376Z,13.48
2022-09-26T22:12:27.437Z,13.48
2022-09-26T22:14:54.504Z,13.52
2022-09-26T22:17:21.422Z,13.72
2022-09-26T22:19:48.509Z,13.49
2022-09-26T22:22:18.014Z,13.61
2022-09-26T22:24:45.300Z,13.23
2022-09-26T22:27:12.548Z,13.53
2022-09-26T22:29:41.571Z,13.46
2022-09-26T22:32:10.931Z,13.48
2022-09-26T22:34:37.857Z,13.62
2022-09-26T22:37:07.111Z,13.59
2022-09-26T22:39:36.181Z,13.63
2022-09-26T22:42:03.261Z,13.66
2022-09-26T22:44:31.145Z,13.50
2022-09-26T22:47:00.744Z,13.48
2022-09-26T22:49:30.794Z,13.44
2022-09-26T22:52:07.566Z,13.54
2022-09-26T22:54:34.647Z,13.55
2022-09-26T22:57:02.059Z,13.53
2022-09-26T22:59:29.010Z,13.38
2022-09-26T23:01:59.008Z,13.35
2022-09-26T23:04:45.883Z,13.44
2022-09-26T23:07:15.776Z,13.23
2022-09-26T23:09:45.791Z,13.15
2022-09-26T23:12:12.945Z,13.24
2022-09-26T23:14:40.332Z,13.11
2022-09-26T23:17:09.859Z,13.20
2022-09-26T23:19:40.140Z,13.15
2022-09-26T23:22:09.482Z,13.20
2022-09-26T23:24:36.603Z,13.25
2022-09-26T23:27:04.215Z,13.29
2022-09-26T23:29:31.329Z,13.23
2022-09-26T23:32:01.101Z,13.32
2022-09-26T23:34:28.316Z,13.33
2022-09-26T23:36:55.835Z,13.32
2022-09-26T23:39:25.575Z,13.31
2022-09-26T23:41:52.461Z,13.44
2022-09-26T23:44:20.038Z,13.66
2022-09-26T23:46:48.219Z,13.64
2022-09-26T23:49:15.328Z,13.76
2022-09-26T23:51:42.553Z,13.82
2022-09-26T23:54:09.616Z,13.90
2022-09-26T23:56:38.727Z,13.81
2022-09-26T23:59:05.823Z,13.76
